Time;durP1;ratioP1;P1;durP2;ratioP2;P2;SDS_P1;SDS_P2;PMS_P1;PMS_P2;Temp;Humidity;BMP_temperature;BMP_pressure;BME280_temperature;BME280_humidity;BME280_pressure;Samples;Min_cycle;Max_cycle;Signal;HPM_P1;HPM_P2
2021/04/09 00:00:07;;;;;;;6.57;4.90;;;0.60;99.90;;;;;;5052783;28;20463;-70
2021/04/09 00:02:33;;;;;;;7.10;4.70;;;0.60;99.90;;;;;;5035772;28;20198;-70
2021/04/09 00:04:59;;;;;;;6.50;5.30;;;0.60;99.90;;;;;;5053255;28;20432;-70
2021/04/09 00:07:24;;;;;;;5.13;4.00;;;0.60;99.90;;;;;;5053508;28;20165;-70
2021/04/09 00:09:50;;;;;;;6.20;4.40;;;0.60;99.90;;;;;;5052510;28;20178;-70
2021/04/09 00:12:16;;;;;;;6.13;4.77;;;0.60;99.90;;;;;;5053700;28;20214;-69
2021/04/09 00:14:41;;;;;;;5.90;4.27;;;0.60;99.90;;;;;;5052651;28;20190;-69
2021/04/09 00:17:07;;;;;;;7.77;4.30;;;0.50;99.90;;;;;;5053454;28;20561;-70
2021/04/09 00:19:33;;;;;;;8.47;4.07;;;0.60;99.90;;;;;;5052409;28;20187;-70
2021/04/09 00:21:59;;;;;;;6.57;4.47;;;0.60;99.90;;;;;;5053125;28;20426;-70
2021/04/09 00:24:26;;;;;;;5.87;3.83;;;0.60;99.90;;;;;;5052564;28;20964;-70
2021/04/09 00:26:52;;;;;;;5.47;3.90;;;0.60;99.90;;;;;;5053650;28;20174;-70
2021/04/09 00:29:18;;;;;;;4.33;3.30;;;0.60;99.90;;;;;;5060953;28;20916;-70
2021/04/09 00:31:44;;;;;;;6.03;4.33;;;0.60;99.90;;;;;;5061369;28;20441;-71
2021/04/09 00:34:09;;;;;;;6.13;4.23;;;0.60;99.90;;;;;;5056204;28;20173;-71
2021/04/09 00:36:36;;;;;;;6.40;4.10;;;0.60;99.90;;;;;;5057336;28;20253;-71
2021/04/09 00:39:07;;;;;;;4.67;3.80;;;0.70;99.90;;;;;;5056575;28;20533;-70
2021/04/09 00:41:36;;;;;;;8.37;4.40;;;0.60;99.90;;;;;;5057433;28;20487;-69
2021/04/09 00:44:04;;;;;;;9.10;4.27;;;0.60;99.90;;;;;;5056105;28;20516;-70
2021/04/09 00:46:29;;;;;;;4.83;4.33;;;0.60;99.90;;;;;;5057517;28;20434;-71
2021/04/09 00:48:55;;;;;;;14.53;3.90;;;0.60;99.90;;;;;;5056045;28;21014;-70
2021/04/09 00:51:21;;;;;;;8.17;4.40;;;0.60;99.90;;;;;;5056955;28;20668;-71
2021/04/09 00:53:47;;;;;;;6.57;4.20;;;0.60;99.90;;;;;;5055949;28;20686;-70
2021/04/09 00:56:16;;;;;;;6.37;4.30;;;0.60;99.90;;;;;;5057384;28;20183;-69
2021/04/09 00:58:42;;;;;;;10.33;4.57;;;0.60;99.90;;;;;;5055625;28;20398;-70
2021/04/09 01:01:08;;;;;;;8.60;3.57;;;0.60;99.90;;;;;;5056972;28;20454;-70
2021/04/09 01:03:34;;;;;;;5.97;4.03;;;0.60;99.90;;;;;;5055890;28;20525;-70
2021/04/09 01:06:02;;;;;;;5.77;3.70;;;0.60;99.90;;;;;;5054932;28;20517;-70
2021/04/09 01:08:28;;;;;;;7.27;4.17;;;0.50;99.90;;;;;;5056777;28;20179;-70
2021/04/09 01:10:54;;;;;;;5.87;3.60;;;0.50;99.90;;;;;;5055880;28;20801;-70
2021/04/09 01:13:19;;;;;;;4.70;3.50;;;0.60;99.90;;;;;;5056247;28;20448;-70
2021/04/09 01:15:45;;;;;;;6.93;4.17;;;0.50;99.90;;;;;;5055635;28;20599;-71
2021/04/09 01:18:23;;;;;;;3.70;3.17;;;0.50;99.90;;;;;;5056367;28;20163;-71
2021/04/09 01:21:00;;;;;;;6.53;3.87;;;0.50;99.90;;;;;;5057036;28;20450;-70
2021/04/09 01:23:31;;;;;;;5.47;3.50;;;0.50;99.90;;;;;;5059210;28;20516;-71
2021/04/09 01:26:12;;;;;;;3.93;3.50;;;0.50;99.90;;;;;;5067792;28;20430;-71
2021/04/09 01:29:06;;;;;;;8.80;3.57;;;0.40;99.90;;;;;;5076398;28;20405;-71
2021/04/09 01:31:50;;;;;;;6.60;3.73;;;0.40;99.90;;;;;;5056574;28;20452;-71
2021/04/09 01:34:18;;;;;;;5.00;3.60;;;0.30;99.90;;;;;;5069467;28;20938;-70
2021/04/09 01:36:48;;;;;;;7.80;3.87;;;0.40;99.90;;;;;;5055490;28;20968;-70
2021/04/09 01:39:32;;;;;;;16.63;3.10;;;0.40;99.90;;;;;;5055958;28;20417;-70
2021/04/09 01:42:01;;;;;;;4.83;3.70;;;0.40;99.90;;;;;;5055483;28;20421;-71
2021/04/09 01:44:30;;;;;;;6.07;3.27;;;0.40;99.90;;;;;;5055679;28;20395;-72
2021/04/09 01:46:57;;;;;;;3.27;2.60;;;0.30;99.90;;;;;;5036100;28;20410;-70
2021/04/09 01:49:25;;;;;;;6.23;3.80;;;0.30;99.90;;;;;;5063055;28;20433;-71
2021/04/09 01:51:52;;;;;;;7.03;3.33;;;0.20;99.90;;;;;;5071446;28;20446;-71
2021/04/09 01:54:19;;;;;;;4.20;2.90;;;0.10;99.90;;;;;;5060092;28;20574;-70
2021/04/09 01:56:46;;;;;;;5.57;3.00;;;0.10;99.90;;;;;;5056851;28;20423;-69
2021/04/09 01:59:14;;;;;;;4.40;3.30;;;0.10;99.90;;;;;;5075847;28;20412;-69
2021/04/09 02:01:40;;;;;;;5.37;2.60;;;0.10;99.90;;;;;;5055910;28;20469;-72
2021/04/09 02:04:07;;;;;;;3.20;2.60;;;0.10;99.90;;;;;;5055609;28;20520;-71
2021/04/09 02:06:35;;;;;;;4.40;2.53;;;0.00;99.90;;;;;;5054586;28;20437;-70
2021/04/09 02:09:02;;;;;;;4.53;2.90;;;0.00;99.90;;;;;;5055395;28;20416;-70
2021/04/09 02:11:31;;;;;;;3.60;2.60;;;0.00;99.90;;;;;;5069033;28;20511;-71
2021/04/09 02:13:57;;;;;;;4.37;2.90;;;-0.10;99.90;;;;;;5075725;28;20384;-70
2021/04/09 02:16:24;;;;;;;5.20;2.90;;;0.00;99.90;;;;;;5059264;28;20477;-70
2021/04/09 02:18:50;;;;;;;4.73;3.40;;;-0.10;99.90;;;;;;5055602;28;20460;-71
2021/04/09 02:21:16;;;;;;;5.90;3.10;;;-0.10;99.90;;;;;;5054427;28;20472;-71
2021/04/09 02:23:41;;;;;;;4.33;3.00;;;-0.10;99.90;;;;;;5055395;28;20504;-71
2021/04/09 02:26:07;;;;;;;3.40;2.90;;;-0.10;99.90;;;;;;5053493;28;20233;-71
2021/04/09 02:28:34;;;;;;;7.30;2.73;;;-0.10;99.90;;;;;;5055197;28;20172;-71
2021/04/09 02:31:03;;;;;;;3.20;2.77;;;-0.10;99.90;;;;;;5054411;28;20179;-71
2021/04/09 02:33:34;;;;;;;3.67;2.90;;;-0.10;99.90;;;;;;5055403;28;20414;-70
2021/04/09 02:36:11;;;;;;;11.10;3.00;;;-0.20;99.90;;;;;;5053766;28;20436;-71
2021/04/09 02:38:38;;;;;;;3.93;2.40;;;-0.20;99.90;;;;;;5055127;28;20839;-71
2021/04/09 02:41:04;;;;;;;3.93;2.20;;;-0.20;99.90;;;;;;5053577;28;20463;-71
2021/04/09 02:43:31;;;;;;;4.97;2.90;;;-0.20;99.90;;;;;;5054983;28;20406;-71
2021/04/09 02:45:57;;;;;;;5.97;3.00;;;-0.20;99.90;;;;;;5054229;28;20452;-70
2021/04/09 02:48:34;;;;;;;4.70;2.87;;;-0.20;99.90;;;;;;5054890;28;20418;-70
2021/04/09 02:51:06;;;;;;;5.10;2.83;;;-0.30;99.90;;;;;;5053367;28;20567;-71
2021/04/09 02:53:34;;;;;;;5.27;3.63;;;-0.30;99.90;;;;;;5054755;28;20387;-70
2021/04/09 02:56:03;;;;;;;6.07;3.63;;;-0.30;99.90;;;;;;5052790;28;20426;-70
2021/04/09 02:58:32;;;;;;;6.07;2.80;;;-0.30;99.90;;;;;;5053772;28;20429;-71
2021/04/09 03:00:59;;;;;;;7.33;2.93;;;-0.30;99.90;;;;;;5053278;28;20457;-70
2021/04/09 03:03:25;;;;;;;4.00;2.97;;;-0.30;99.90;;;;;;5054325;28;20406;-70
2021/04/09 03:05:52;;;;;;;3.93;2.90;;;-0.40;99.90;;;;;;5053401;28;20437;-70
2021/04/09 03:08:20;;;;;;;3.57;2.57;;;-0.40;99.90;;;;;;5054418;28;20420;-70
2021/04/09 03:10:45;;;;;;;5.03;3.57;;;-0.40;99.90;;;;;;5053372;28;20432;-70
2021/04/09 03:13:12;;;;;;;3.57;2.50;;;-0.40;99.90;;;;;;5055029;28;20467;-70
2021/04/09 03:15:44;;;;;;;6.50;3.17;;;-0.40;99.90;;;;;;5052503;28;20178;-70
2021/04/09 03:18:13;;;;;;;5.20;3.67;;;-0.40;99.90;;;;;;5054504;28;20448;-70
2021/04/09 03:20:40;;;;;;;4.23;2.80;;;-0.40;99.90;;;;;;5053224;28;20460;-70
2021/04/09 03:23:06;;;;;;;4.10;2.83;;;-0.40;99.90;;;;;;5036473;28;20816;-70
2021/04/09 03:25:32;;;;;;;4.97;3.30;;;-0.40;99.90;;;;;;5053198;28;20479;-70
2021/04/09 03:27:58;;;;;;;5.20;2.77;;;-0.40;99.90;;;;;;5054138;28;20399;-70
2021/04/09 03:30:25;;;;;;;8.03;3.00;;;-0.40;99.90;;;;;;5052541;28;20432;-71
2021/04/09 03:32:51;;;;;;;7.13;3.40;;;-0.40;99.90;;;;;;5053972;28;20198;-70
2021/04/09 03:35:18;;;;;;;4.93;3.27;;;-0.40;99.90;;;;;;5051851;28;20426;-69
2021/04/09 03:37:44;;;;;;;6.87;3.73;;;-0.40;99.90;;;;;;5053521;28;20413;-70
2021/04/09 03:40:11;;;;;;;5.70;2.63;;;-0.40;99.90;;;;;;5052683;28;20801;-71
2021/04/09 03:42:37;;;;;;;4.67;3.40;;;-0.40;99.90;;;;;;5053367;28;20434;-70
2021/04/09 03:45:05;;;;;;;6.00;3.67;;;-0.40;99.90;;;;;;5053331;28;20440;-72
2021/04/09 03:47:31;;;;;;;3.90;2.83;;;-0.40;99.90;;;;;;5053693;28;20417;-70
2021/04/09 03:49:57;;;;;;;4.90;3.07;;;-0.50;99.90;;;;;;5053979;28;20838;-70
2021/04/09 03:52:23;;;;;;;6.70;3.13;;;-0.50;99.90;;;;;;5052208;28;20548;-70
2021/04/09 03:54:48;;;;;;;5.03;3.07;;;-0.50;99.90;;;;;;5053391;28;20201;-70
2021/04/09 03:57:14;;;;;;;8.83;3.27;;;-0.60;99.90;;;;;;5052383;28;20864;-70
2021/04/09 03:59:40;;;;;;;3.40;2.80;;;-0.50;99.90;;;;;;5053557;28;20170;-70
2021/04/09 04:02:06;;;;;;;4.80;2.70;;;-0.60;99.90;;;;;;5051434;28;20297;-70
2021/04/09 04:04:31;;;;;;;4.13;2.87;;;-0.60;99.90;;;;;;5052940;28;20174;-70
2021/04/09 04:06:57;;;;;;;4.40;3.13;;;-0.60;99.90;;;;;;5054090;28;20171;-70
2021/04/09 04:09:23;;;;;;;7.57;3.60;;;-0.60;99.90;;;;;;5073493;28;20569;-70
2021/04/09 04:11:48;;;;;;;5.03;2.83;;;-0.70;99.90;;;;;;5058235;28;20301;-70
2021/04/09 04:14:14;;;;;;;3.20;2.80;;;-0.70;99.90;;;;;;5053585;28;20332;-70
2021/04/09 04:16:40;;;;;;;5.10;2.50;;;-0.70;99.90;;;;;;5058722;28;20185;-70
2021/04/09 04:19:06;;;;;;;5.07;3.53;;;-0.60;99.90;;;;;;5073353;28;20441;-71
2021/04/09 04:21:31;;;;;;;4.50;3.13;;;-0.60;99.90;;;;;;5065699;28;20608;-71
2021/04/09 04:23:57;;;;;;;6.60;3.30;;;-0.60;99.90;;;;;;5053037;28;20282;-71
2021/04/09 04:26:23;;;;;;;4.17;3.10;;;-0.60;99.90;;;;;;5052601;28;20182;-71
2021/04/09 04:28:48;;;;;;;4.73;3.17;;;-0.60;99.90;;;;;;5053329;28;20209;-71
2021/04/09 04:31:14;;;;;;;6.47;3.27;;;-0.60;99.90;;;;;;5051457;28;20175;-71
2021/04/09 04:33:40;;;;;;;4.57;2.90;;;-0.60;99.90;;;;;;5053105;28;20190;-71
2021/04/09 04:36:06;;;;;;;4.40;3.13;;;-0.60;99.90;;;;;;5052553;28;20420;-71
2021/04/09 04:38:32;;;;;;;6.40;2.60;;;-0.70;99.90;;;;;;5053093;28;20258;-71
2021/04/09 04:40:58;;;;;;;2.93;2.23;;;-0.70;99.90;;;;;;5051779;28;20529;-71
2021/04/09 04:43:24;;;;;;;5.77;2.50;;;-0.70;99.90;;;;;;5053380;28;20172;-71
2021/04/09 04:45:50;;;;;;;4.73;2.57;;;-0.70;99.90;;;;;;5052860;28;20766;-71
2021/04/09 04:48:16;;;;;;;4.63;2.97;;;-0.70;99.90;;;;;;5053100;28;20432;-70
2021/04/09 04:50:42;;;;;;;6.43;3.23;;;-0.70;99.90;;;;;;5052837;28;20224;-70
2021/04/09 04:53:08;;;;;;;6.47;3.23;;;-0.60;99.90;;;;;;5052017;28;20463;-71
2021/04/09 04:55:34;;;;;;;4.03;2.60;;;-0.60;99.90;;;;;;5053059;28;20431;-71
2021/04/09 04:57:59;;;;;;;9.67;2.90;;;-0.50;99.90;;;;;;5052853;28;20889;-71
2021/04/09 05:00:26;;;;;;;6.43;3.40;;;-0.60;99.90;;;;;;5052882;28;20210;-71
2021/04/09 05:02:52;;;;;;;6.50;2.30;;;-0.50;99.90;;;;;;5065827;28;20212;-70
2021/04/09 05:05:18;;;;;;;3.03;2.33;;;-0.50;99.90;;;;;;5072787;28;20814;-70
2021/04/09 05:07:44;;;;;;;5.83;3.20;;;-0.50;99.90;;;;;;5070964;28;20439;-70
2021/04/09 05:10:10;;;;;;;7.20;2.90;;;-0.40;99.90;;;;;;5073193;28;20236;-69
2021/04/09 05:12:36;;;;;;;3.73;2.60;;;-0.40;99.90;;;;;;5059082;28;20219;-70
2021/04/09 05:15:03;;;;;;;5.17;2.67;;;-0.40;99.90;;;;;;5053200;28;20492;-70
2021/04/09 05:17:29;;;;;;;7.33;3.50;;;-0.40;99.90;;;;;;5055506;28;20432;-70
2021/04/09 05:19:55;;;;;;;12.63;2.97;;;-0.30;99.90;;;;;;5055508;28;20534;-70
2021/04/09 05:22:21;;;;;;;7.60;3.10;;;-0.30;99.90;;;;;;5054422;28;20487;-71
2021/04/09 05:24:50;;;;;;;5.67;3.13;;;-0.30;99.90;;;;;;5056669;28;20204;-71
2021/04/09 05:27:16;;;;;;;4.43;2.40;;;-0.30;99.90;;;;;;5055025;28;20465;-71
2021/04/09 05:29:42;;;;;;;5.40;2.77;;;-0.20;99.90;;;;;;5056119;28;20775;-71
2021/04/09 05:32:10;;;;;;;4.40;2.57;;;-0.20;99.90;;;;;;5054642;28;20492;-71
2021/04/09 05:34:35;;;;;;;4.57;3.30;;;-0.20;99.90;;;;;;5056012;28;20500;-71
2021/04/09 05:37:02;;;;;;;5.07;2.70;;;-0.10;99.90;;;;;;5060776;28;20504;-71
2021/04/09 05:39:28;;;;;;;6.70;3.53;;;0.00;99.90;;;;;;5075729;28;20619;-71
2021/04/09 05:41:54;;;;;;;14.77;3.27;;;0.00;99.90;;;;;;5073843;28;20514;-71
2021/04/09 05:44:20;;;;;;;5.67;2.50;;;0.10;99.90;;;;;;5076150;28;20181;-70
2021/04/09 05:46:45;;;;;;;6.33;3.33;;;0.20;99.90;;;;;;5056143;28;20424;-71
2021/04/09 05:49:11;;;;;;;5.53;3.10;;;0.40;99.90;;;;;;5075869;28;20415;-71
2021/04/09 05:51:37;;;;;;;3.77;2.57;;;0.50;99.90;;;;;;5072925;28;20275;-72
2021/04/09 05:54:03;;;;;;;5.60;2.80;;;0.60;99.90;;;;;;5055290;28;20180;-72
2021/04/09 05:56:29;;;;;;;4.40;2.67;;;0.70;99.90;;;;;;5055726;28;20410;-72
2021/04/09 05:58:55;;;;;;;8.03;2.70;;;0.90;99.90;;;;;;5054414;28;20175;-71
2021/04/09 06:01:21;;;;;;;5.07;2.70;;;1.00;99.90;;;;;;5055291;28;20518;-70
2021/04/09 06:03:47;;;;;;;5.33;2.87;;;1.20;99.90;;;;;;5037183;28;20956;-70
2021/04/09 06:06:13;;;;;;;18.00;7.10;;;1.30;99.90;;;;;;5055644;28;20170;-70
2021/04/09 06:08:38;;;;;;;5.47;2.53;;;1.40;99.90;;;;;;5054588;28;20429;-71
2021/04/09 06:11:05;;;;;;;5.60;2.77;;;1.60;99.90;;;;;;5055163;28;20172;-71
2021/04/09 06:13:31;;;;;;;4.80;1.93;;;1.70;99.90;;;;;;5054255;28;20271;-70
2021/04/09 06:15:57;;;;;;;3.77;2.50;;;1.90;99.90;;;;;;5056514;28;20962;-70
2021/04/09 06:18:22;;;;;;;6.60;2.47;;;2.00;99.90;;;;;;5055030;28;20426;-70
2021/04/09 06:20:48;;;;;;;5.97;2.63;;;2.20;99.90;;;;;;5055616;28;20485;-71
2021/04/09 06:23:14;;;;;;;6.80;2.17;;;2.30;99.90;;;;;;5054304;28;20190;-71
2021/04/09 06:25:40;;;;;;;5.63;2.20;;;2.50;99.90;;;;;;5055187;28;20986;-70
2021/04/09 06:28:05;;;;;;;4.70;2.83;;;2.60;99.90;;;;;;5054214;28;20650;-71
2021/04/09 06:30:31;;;;;;;6.43;2.80;;;2.80;99.90;;;;;;5036939;28;20175;-70
2021/04/09 06:32:57;;;;;;;4.30;2.73;;;3.00;99.90;;;;;;5060289;28;20207;-71
2021/04/09 06:35:22;;;;;;;5.60;2.10;;;3.20;99.90;;;;;;5075067;28;20614;-72
2021/04/09 06:37:48;;;;;;;6.83;2.57;;;3.40;99.90;;;;;;5068224;28;20267;-72
2021/04/09 06:40:14;;;;;;;4.17;2.10;;;3.60;99.90;;;;;;5054568;28;20242;-71
2021/04/09 06:42:41;;;;;;;6.97;2.70;;;3.80;99.90;;;;;;5053868;28;20248;-72
2021/04/09 06:45:08;;;;;;;4.53;2.30;;;3.90;99.90;;;;;;5054732;28;20400;-71
2021/04/09 06:47:34;;;;;;;8.10;2.83;;;4.20;99.90;;;;;;5052541;28;20443;-72
2021/04/09 06:50:00;;;;;;;7.47;2.87;;;4.40;99.90;;;;;;5050159;28;20478;-72
2021/04/09 06:52:27;;;;;;;4.60;2.20;;;4.60;99.90;;;;;;5049590;28;20687;-72
2021/04/09 06:54:53;;;;;;;5.20;3.43;;;4.70;99.90;;;;;;5032808;28;20522;-72
2021/04/09 06:57:19;;;;;;;3.67;1.83;;;4.90;99.90;;;;;;5053320;28;20446;-71
2021/04/09 06:59:46;;;;;;;9.20;2.17;;;5.10;99.50;;;;;;5048244;28;20448;-71
2021/04/09 07:02:21;;;;;;;4.23;1.80;;;5.20;98.70;;;;;;5025265;28;20196;-71
2021/04/09 07:04:47;;;;;;;2.70;1.60;;;5.40;97.70;;;;;;5054117;28;20784;-72
2021/04/09 07:07:17;;;;;;;7.10;2.40;;;5.50;97.00;;;;;;5044193;28;20424;-72
2021/04/09 07:09:44;;;;;;;4.20;2.03;;;5.70;96.30;;;;;;5051577;28;20660;-71
2021/04/09 07:12:21;;;;;;;3.00;1.60;;;5.80;95.40;;;;;;5052685;28;20476;-71
2021/04/09 07:14:48;;;;;;;3.40;1.80;;;5.90;94.90;;;;;;5053119;28;20937;-71
2021/04/09 07:17:25;;;;;;;3.90;2.03;;;6.00;94.10;;;;;;5053572;28;20403;-71
2021/04/09 07:19:51;;;;;;;3.20;1.40;;;6.20;93.50;;;;;;5052678;28;20939;-71
2021/04/09 07:22:29;;;;;;;9.53;1.70;;;6.30;93.60;;;;;;5051962;28;20441;-71
2021/04/09 07:25:27;;;;;;;4.63;2.13;;;6.30;92.90;;;;;;5048712;28;20447;-71
2021/04/09 07:28:17;;;;;;;12.30;5.93;;;6.50;92.60;;;;;;5001164;28;20954;-71
2021/04/09 07:30:52;;;;;;;29.80;10.47;;;6.50;92.20;;;;;;5053572;28;20412;-71
2021/04/09 07:33:29;;;;;;;3.60;1.90;;;6.70;92.50;;;;;;5051752;28;20452;-72
2021/04/09 07:35:57;;;;;;;5.63;2.87;;;6.80;92.00;;;;;;5053909;28;20379;-71
2021/04/09 07:38:30;;;;;;;5.30;1.50;;;6.90;91.70;;;;;;5033762;28;20429;-72
2021/04/09 07:41:00;;;;;;;2.40;1.50;;;7.00;90.60;;;;;;5049748;28;20477;-72
2021/04/09 07:43:29;;;;;;;7.83;1.63;;;7.20;90.10;;;;;;5068051;28;20413;-71
2021/04/09 07:45:57;;;;;;;3.00;1.77;;;7.30;89.30;;;;;;5055428;28;20426;-71
2021/04/09 07:48:32;;;;;;;4.93;1.80;;;7.50;89.40;;;;;;5050759;28;20422;-71
2021/04/09 07:50:59;;;;;;;4.43;2.10;;;7.60;88.60;;;;;;5044348;28;20430;-72
2021/04/09 07:53:30;;;;;;;5.00;2.10;;;7.70;89.10;;;;;;5052536;28;20411;-71
2021/04/09 07:56:03;;;;;;;6.10;2.17;;;7.80;87.70;;;;;;5058509;28;20422;-71
2021/04/09 07:58:29;;;;;;;4.60;2.33;;;8.00;87.40;;;;;;5053198;28;20944;-72
2021/04/09 08:00:55;;;;;;;4.87;2.50;;;8.00;87.20;;;;;;5036852;28;20443;-71
2021/04/09 08:03:30;;;;;;;3.23;1.83;;;8.20;87.60;;;;;;5051261;28;20239;-71
2021/04/09 08:06:04;;;;;;;6.60;2.27;;;8.20;87.00;;;;;;5050597;28;20178;-76
2021/04/09 08:08:30;;;;;;;3.40;2.40;;;8.40;86.70;;;;;;5052916;28;20784;-74
2021/04/09 08:11:29;;;;;;;4.43;2.03;;;8.50;86.40;;;;;;5051558;28;20432;-73
2021/04/09 08:14:09;;;;;;;10.03;1.90;;;8.70;83.90;;;;;;5047692;28;20181;-67
2021/04/09 08:16:45;;;;;;;3.20;1.57;;;8.90;79.30;;;;;;5052432;28;20420;-75
2021/04/09 08:19:13;;;;;;;2.70;1.77;;;9.10;77.50;;;;;;5051699;28;20422;-72
2021/04/09 08:21:51;;;;;;;6.85;1.80;;;9.20;76.10;;;;;;5050399;28;20514;-70
2021/04/09 08:24:17;;;;;;;2.37;1.43;;;9.40;75.50;;;;;;5048993;28;20163;-69
2021/04/09 08:26:43;;;;;;;4.40;1.53;;;9.50;76.10;;;;;;5035164;28;20427;-69
2021/04/09 08:29:11;;;;;;;2.70;1.90;;;9.70;76.30;;;;;;5043932;28;20411;-70
2021/04/09 08:31:39;;;;;;;3.90;1.47;;;9.80;74.60;;;;;;5051494;28;20592;-70
2021/04/09 08:34:07;;;;;;;2.43;1.43;;;9.90;74.20;;;;;;5047631;28;20434;-69
2021/04/09 08:36:35;;;;;;;2.57;1.73;;;10.10;73.90;;;;;;5050805;28;20471;-69
2021/04/09 08:39:01;;;;;;;4.90;1.10;;;10.20;74.30;;;;;;5044431;28;20422;-69
2021/04/09 08:41:28;;;;;;;6.00;2.17;;;10.20;72.00;;;;;;5050985;28;20497;-70
2021/04/09 08:43:54;;;;;;;4.27;1.53;;;10.30;71.40;;;;;;5032810;28;20420;-70
2021/04/09 08:46:20;;;;;;;2.53;1.90;;;10.40;72.10;;;;;;5048831;28;20608;-71
2021/04/09 08:48:47;;;;;;;5.23;2.00;;;10.50;72.20;;;;;;5052238;28;20508;-70
2021/04/09 08:51:14;;;;;;;2.57;1.70;;;10.60;66.10;;;;;;5054708;28;20298;-71
2021/04/09 08:53:40;;;;;;;2.80;1.40;;;10.70;63.60;;;;;;5052228;28;20431;-70
2021/04/09 08:56:06;;;;;;;2.97;1.83;;;10.80;62.70;;;;;;5056621;28;20415;-71
2021/04/09 08:58:43;;;;;;;2.20;1.40;;;11.00;61.70;;;;;;5054144;28;20231;-73
2021/04/09 09:01:11;;;;;;;3.67;1.70;;;11.10;60.50;;;;;;5056381;28;20519;-71
2021/04/09 09:03:37;;;;;;;8.50;1.40;;;11.10;62.40;;;;;;5055525;28;20425;-71
2021/04/09 09:06:05;;;;;;;4.60;1.77;;;11.30;63.20;;;;;;5055990;28;20430;-71
2021/04/09 09:08:46;;;;;;;3.50;1.33;;;11.30;63.30;;;;;;5054649;28;20219;-71
2021/04/09 09:11:32;;;;;;;9.97;1.63;;;11.40;64.70;;;;;;5046816;28;20407;-71
2021/04/09 09:13:58;;;;;;;4.10;2.00;;;11.40;63.50;;;;;;5053770;28;20428;-71
2021/04/09 09:16:35;;;;;;;2.77;1.90;;;11.60;62.90;;;;;;5056335;28;20430;-71
2021/04/09 09:19:01;;;;;;;2.20;1.53;;;11.60;63.00;;;;;;5031552;28;20632;-71
2021/04/09 09:21:32;;;;;;;4.57;1.80;;;11.70;64.00;;;;;;5050942;28;20468;-72
2021/04/09 09:24:17;;;;;;;4.30;1.60;;;11.80;62.40;;;;;;5048511;28;20981;-71
2021/04/09 09:26:45;;;;;;;4.83;1.77;;;11.90;61.70;;;;;;5055038;28;20411;-72
2021/04/09 09:29:26;;;;;;;3.63;1.70;;;12.00;62.30;;;;;;5037301;28;20436;-70
2021/04/09 09:31:56;;;;;;;3.13;1.90;;;12.10;60.40;;;;;;5056136;28;20424;-70
2021/04/09 09:34:22;;;;;;;4.07;2.03;;;12.20;59.30;;;;;;5054758;28;20504;-71
2021/04/09 09:37:11;;;;;;;4.50;2.00;;;12.30;59.60;;;;;;5054246;28;20427;-72
2021/04/09 09:39:39;;;;;;;3.60;2.00;;;12.40;59.00;;;;;;5051345;28;20197;-70
2021/04/09 09:42:14;;;;;;;3.70;2.10;;;12.50;59.00;;;;;;5055547;28;21066;-70
2021/04/09 09:44:40;;;;;;;4.20;1.63;;;12.60;58.60;;;;;;5037881;28;20949;-70
2021/04/09 09:47:14;;;;;;;4.17;2.10;;;12.60;56.80;;;;;;5056015;28;20412;-70
2021/04/09 09:50:00;;;;;;;3.30;1.80;;;12.70;57.00;;;;;;5063262;28;20551;-71
2021/04/09 09:52:43;;;;;;;4.23;1.90;;;12.80;57.60;;;;;;5048281;28;20443;-71
2021/04/09 09:55:14;;;;;;;5.73;2.03;;;12.90;57.00;;;;;;5068664;28;20407;-70
2021/04/09 09:57:53;;;;;;;5.10;2.03;;;13.00;56.20;;;;;;5076238;28;20378;-71
2021/04/09 10:00:26;;;;;;;3.60;1.80;;;13.10;57.20;;;;;;5055852;28;20864;-71
2021/04/09 10:03:10;;;;;;;5.80;2.77;;;13.00;56.70;;;;;;5051621;28;20443;-70
2021/04/09 10:05:37;;;;;;;25.13;2.57;;;13.00;56.90;;;;;;5051764;28;20459;-71
2021/04/09 10:08:04;;;;;;;5.30;1.67;;;13.20;56.80;;;;;;5054055;28;20489;-71
2021/04/09 10:10:59;;;;;;;4.30;1.67;;;13.20;56.40;;;;;;5054460;28;20463;-70
2021/04/09 10:13:29;;;;;;;3.70;1.70;;;13.30;56.50;;;;;;5041334;28;20467;-71
2021/04/09 10:16:21;;;;;;;4.60;2.20;;;13.40;57.00;;;;;;5035155;28;20448;-70
2021/04/09 10:18:48;;;;;;;2.50;1.53;;;13.50;55.60;;;;;;5038785;28;20406;-72
2021/04/09 10:21:21;;;;;;;3.90;1.70;;;13.60;55.50;;;;;;5066744;28;20452;-71
2021/04/09 10:23:51;;;;;;;2.00;1.30;;;13.60;54.90;;;;;;5054009;28;20445;-71
2021/04/09 10:26:23;;;;;;;1.77;1.20;;;13.60;55.00;;;;;;5052935;28;20511;-71
2021/04/09 10:28:49;;;;;;;2.73;1.30;;;13.70;54.60;;;;;;5054314;28;20411;-71
2021/04/09 10:31:17;;;;;;;2.90;1.50;;;13.70;55.30;;;;;;5052029;28;20787;-71
2021/04/09 10:33:44;;;;;;;4.90;1.73;;;13.80;53.90;;;;;;5046710;28;20424;-71
2021/04/09 10:36:24;;;;;;;5.80;2.70;;;13.90;53.80;;;;;;5052418;28;20998;-71
2021/04/09 10:38:52;;;;;;;3.97;2.00;;;14.00;52.90;;;;;;5054376;28;20499;-71
2021/04/09 10:41:32;;;;;;;5.33;1.83;;;14.20;52.90;;;;;;5053008;28;20467;-71
2021/04/09 10:44:02;;;;;;;4.50;1.63;;;14.20;53.60;;;;;;5054057;28;20394;-71
2021/04/09 10:46:51;;;;;;;3.93;1.90;;;14.30;54.60;;;;;;5035865;28;20474;-71
2021/04/09 10:49:18;;;;;;;6.23;1.53;;;14.40;55.20;;;;;;5026702;28;20452;-72
2021/04/09 10:51:47;;;;;;;5.27;1.60;;;14.50;53.70;;;;;;5053110;28;20459;-71
2021/04/09 10:54:30;;;;;;;2.57;1.50;;;14.50;53.40;;;;;;5052548;28;20940;-73
2021/04/09 10:56:57;;;;;;;3.60;1.50;;;14.50;54.60;;;;;;5052212;28;20447;-71
2021/04/09 10:59:28;;;;;;;2.30;1.30;;;14.60;53.70;;;;;;5053065;28;20424;-71
2021/04/09 11:01:55;;;;;;;2.40;1.50;;;14.60;51.00;;;;;;5051620;28;20470;-71
2021/04/09 11:04:21;;;;;;;5.23;2.50;;;14.70;51.20;;;;;;5052784;28;20459;-71
2021/04/09 11:06:59;;;;;;;4.63;2.10;;;14.90;51.50;;;;;;5052524;28;20447;-72
2021/04/09 11:09:49;;;;;;;2.13;1.33;;;15.10;51.20;;;;;;5054128;28;20473;-71
2021/04/09 11:12:22;;;;;;;2.40;1.40;;;;;;;;;;5053402;28;20460;-71
2021/04/09 11:14:52;;;;;;;4.80;1.90;;;;;;;;;;5052940;28;20476;-71
2021/04/09 11:17:25;;;;;;;4.60;2.20;;;;;;;;;;5052192;28;20408;-72
2021/04/09 11:19:56;;;;;;;4.50;1.60;;;;;;;;;;5053066;28;20806;-72
2021/04/09 11:22:23;;;;;;;3.07;1.60;;;;;;;;;;5034672;28;20444;-71
2021/04/09 11:25:02;;;;;;;2.57;1.80;;;;;;;;;;5053499;28;20398;-72
2021/04/09 11:27:32;;;;;;;2.60;1.40;;;;;;;;;;5042043;28;20502;-72
2021/04/09 11:30:15;;;;;;;2.97;1.60;;;;;;;;;;5034379;28;20456;-73
2021/04/09 11:32:42;;;;;;;1.93;1.37;;;;;;;;;;5051911;28;20524;-72
2021/04/09 11:35:09;;;;;;;2.87;2.07;;;;;;;;;;5033624;28;20432;-71
2021/04/09 11:37:46;;;;;;;2.80;1.60;;;;;;;;;;5053421;28;20849;-71
2021/04/09 11:40:33;;;;;;;3.30;1.33;;;;;;;;;;5051920;28;20462;-72
2021/04/09 11:42:59;;;;;;;3.10;1.83;;;;;;;;;;5051756;28;20449;-72
2021/04/09 11:45:36;;;;;;;4.43;1.50;;;;;;;;;;5051362;28;20424;-72
2021/04/09 11:48:02;;;;;;;3.63;1.40;;;;;;;;;;5053123;28;20411;-72
2021/04/09 11:50:28;;;;;;;3.30;1.90;;;;;;;;;;5051656;28;20460;-71
2021/04/09 11:52:54;;;;;;;3.60;1.40;;;;;;;;;;5051699;28;20491;-71
2021/04/09 11:55:22;;;;;;;4.80;1.90;;;;;;;;;;5050988;28;20437;-71
2021/04/09 11:57:48;;;;;;;2.37;1.33;;;;;;;;;;5034628;28;20422;-71
2021/04/09 12:00:18;;;;;;;5.60;1.50;;;;;;;;;;5050884;28;20594;-71
2021/04/09 12:02:56;;;;;;;3.07;1.50;;;;;;;;;;5052019;28;20584;-71
2021/04/09 12:05:23;;;;;;;4.10;1.93;;;;;;;;;;5051673;28;20402;-70
2021/04/09 12:07:49;;;;;;;3.40;1.70;;;;;;;;;;5051977;28;20412;-72
2021/04/09 12:10:15;;;;;;;5.30;2.63;;;;;;;;;;5052166;28;20884;-71
2021/04/09 12:12:42;;;;;;;3.07;1.50;;;;;;;;;;5052504;28;20445;-71
2021/04/09 12:15:08;;;;;;;2.40;1.40;;;;;;;;;;5051486;28;20422;-73
2021/04/09 12:17:34;;;;;;;8.23;2.07;;;;;;;;;;5052613;28;20417;-72
2021/04/09 12:20:00;;;;;;;3.77;1.70;;;;;;;;;;5034320;28;20417;-71
2021/04/09 12:22:27;;;;;;;3.93;2.30;;;;;;;;;;5051676;28;20514;-72
2021/04/09 12:24:54;;;;;;;4.27;1.87;;;;;;;;;;5052213;28;20410;-72
2021/04/09 12:27:20;;;;;;;2.80;1.80;;;;;;;;;;5073396;28;20425;-72
2021/04/09 12:29:46;;;;;;;4.37;1.73;;;;;;;;;;5077070;28;20492;-71
2021/04/09 12:32:12;;;;;;;4.20;1.90;;;;;;;;;;5057333;28;20536;-71
2021/04/09 12:34:38;;;;;;;4.57;1.60;;;;;;;;;;5056161;28;20410;-71
2021/04/09 12:37:04;;;;;;;3.47;2.03;;;;;;;;;;5055350;28;20428;-71
2021/04/09 12:39:30;;;;;;;5.80;2.27;;;;;;;;;;5056377;28;20421;-71
2021/04/09 12:41:57;;;;;;;3.70;1.60;;;;;;;;;;5055370;28;20547;-72
2021/04/09 12:44:23;;;;;;;5.50;1.67;;;;;;;;;;5056298;28;20894;-71
2021/04/09 12:46:50;;;;;;;4.17;1.70;;;;;;;;;;5054906;28;20890;-71
2021/04/09 12:49:25;;;;;;;3.20;1.67;;;;;;;;;;5056649;28;20744;-72
2021/04/09 12:51:51;;;;;;;4.87;1.73;;;;;;;;;;5055151;28;20448;-72
2021/04/09 12:54:18;;;;;;;3.40;1.77;;;;;;;;;;5055103;28;20425;-72
2021/04/09 12:56:44;;;;;;;4.70;1.87;;;;;;;;;;5055123;28;20512;-71
2021/04/09 12:59:10;;;;;;;3.57;1.93;;;;;;;;;;5055768;28;20432;-71
2021/04/09 13:01:36;;;;;;;3.40;1.57;;;;;;;;;;5054871;28;21005;-72
2021/04/09 13:04:02;;;;;;;3.10;1.83;;;;;;;;;;5055968;28;20910;-71
2021/04/09 13:06:29;;;;;;;4.03;1.83;;;;;;;;;;5055072;28;20410;-71
2021/04/09 13:08:55;;;;;;;3.00;1.70;;;;;;;;;;5038227;28;20429;-71
2021/04/09 13:11:21;;;;;;;3.73;1.70;;;;;;;;;;5055040;28;20457;-71
2021/04/09 13:13:47;;;;;;;3.13;1.57;;;;;;;;;;5038069;28;20469;-71
2021/04/09 13:16:14;;;;;;;3.50;1.83;;;;;;;;;;5054249;28;20453;-71